createdAt,value
2023-05-08T00:00:06.195Z,3.70
2023-05-08T00:02:54.023Z,3.30
2023-05-08T00:05:21.916Z,3.25
2023-05-08T00:07:51.445Z,3.80
2023-05-08T00:10:18.946Z,3.67
2023-05-08T00:12:46.745Z,3.75
2023-05-08T00:15:14.339Z,3.50
2023-05-08T00:17:42.335Z,3.83
2023-05-08T00:20:10.953Z,3.58
2023-05-08T00:22:39.076Z,3.55
2023-05-08T00:25:07.224Z,3.17
2023-05-08T00:27:35.185Z,3.37
2023-05-08T00:30:02.758Z,3.13
2023-05-08T00:32:30.489Z,3.08
2023-05-08T00:34:58.005Z,3.45
2023-05-08T00:37:26.175Z,3.35
2023-05-08T00:39:53.609Z,3.33
2023-05-08T00:42:22.002Z,3.15
2023-05-08T00:44:49.845Z,3.97
2023-05-08T00:47:17.909Z,3.22
2023-05-08T00:49:45.937Z,3.83
2023-05-08T00:52:13.682Z,3.87
2023-05-08T00:54:41.965Z,3.85
2023-05-08T00:57:10.127Z,3.70
2023-05-08T00:59:38.986Z,4.10
2023-05-08T01:02:06.790Z,3.85
2023-05-08T01:04:35.530Z,4.03
2023-05-08T01:07:03.826Z,3.40
2023-05-08T01:09:31.494Z,3.58
2023-05-08T01:12:27.003Z,3.97
2023-05-08T01:15:02.634Z,4.07
2023-05-08T01:17:45.689Z,3.33
2023-05-08T01:20:18.390Z,3.38
2023-05-08T01:23:17.239Z,3.42
2023-05-08T01:26:12.752Z,4.00
2023-05-08T01:29:02.675Z,3.95
2023-05-08T01:31:42.137Z,3.43
2023-05-08T01:34:20.529Z,3.50
2023-05-08T01:36:58.626Z,3.53
2023-05-08T01:39:37.362Z,3.88
2023-05-08T01:42:24.869Z,3.83
2023-05-08T01:44:58.147Z,3.00
2023-05-08T01:47:30.029Z,3.83
2023-05-08T01:50:21.408Z,3.83
2023-05-08T01:53:02.925Z,3.42
2023-05-08T01:55:35.874Z,3.72
2023-05-08T01:58:10.026Z,4.10
2023-05-08T02:00:41.155Z,3.88
2023-05-08T02:03:11.349Z,3.55
2023-05-08T02:05:40.628Z,3.33
2023-05-08T02:08:14.450Z,3.50
2023-05-08T02:10:43.566Z,3.80
2023-05-08T02:13:13.854Z,3.25
2023-05-08T02:15:42.645Z,3.25
2023-05-08T02:18:11.242Z,3.55
2023-05-08T02:20:40.347Z,3.42
2023-05-08T02:23:08.957Z,3.53
2023-05-08T02:25:37.904Z,2.95
2023-05-08T02:28:07.340Z,3.80
2023-05-08T02:30:35.416Z,3.78
2023-05-08T02:33:04.332Z,3.78
2023-05-08T02:35:33.021Z,3.63
2023-05-08T02:38:02.529Z,3.30
2023-05-08T02:40:31.242Z,3.20
2023-05-08T02:42:59.430Z,3.10
2023-05-08T02:45:37.559Z,3.45
2023-05-08T02:48:15.071Z,3.40
2023-05-08T02:51:02.077Z,3.70
2023-05-08T02:53:37.863Z,3.13
2023-05-08T02:56:11.364Z,3.65
2023-05-08T02:58:49.543Z,3.25
2023-05-08T03:01:39.548Z,3.97
2023-05-08T03:04:10.927Z,3.88
2023-05-08T03:06:45.017Z,4.05
2023-05-08T03:09:18.250Z,4.30
2023-05-08T03:11:49.940Z,3.30
2023-05-08T03:14:23.034Z,3.70
2023-05-08T03:16:54.161Z,3.60
2023-05-08T03:19:32.091Z,3.80
2023-05-08T03:22:01.566Z,3.92
2023-05-08T03:24:33.886Z,3.17
2023-05-08T03:27:03.642Z,3.13
2023-05-08T03:29:33.846Z,3.85
2023-05-08T03:32:03.290Z,3.70
2023-05-08T03:34:32.087Z,3.97
2023-05-08T03:36:59.829Z,2.88
2023-05-08T03:39:27.673Z,3.80
2023-05-08T03:41:56.231Z,3.78
2023-05-08T03:44:25.844Z,3.38
2023-05-08T03:46:56.324Z,3.55
2023-05-08T03:49:26.667Z,3.60
2023-05-08T03:51:55.916Z,3.97
2023-05-08T03:54:28.828Z,3.78
2023-05-08T03:56:57.211Z,3.40
2023-05-08T03:59:34.109Z,3.53
2023-05-08T04:02:14.540Z,4.53
2023-05-08T04:04:45.724Z,5.50
2023-05-08T04:07:29.103Z,5.88
2023-05-08T04:10:03.581Z,5.53
2023-05-08T04:12:45.937Z,5.45
2023-05-08T04:15:54.604Z,5.85
2023-05-08T04:18:29.189Z,6.07
2023-05-08T04:21:01.558Z,6.53
2023-05-08T04:23:30.691Z,5.63
2023-05-08T04:26:02.970Z,6.22
2023-05-08T04:28:31.753Z,6.22
2023-05-08T04:31:00.491Z,5.30
2023-05-08T04:33:29.027Z,5.13
2023-05-08T04:36:01.478Z,5.80
2023-05-08T04:38:29.479Z,5.55
2023-05-08T04:40:57.296Z,5.47
2023-05-08T04:43:25.613Z,5.20
2023-05-08T04:45:53.690Z,6.13
2023-05-08T04:48:21.498Z,6.03
2023-05-08T04:50:49.268Z,6.25
2023-05-08T04:53:17.041Z,6.22
2023-05-08T04:55:44.934Z,6.90
2023-05-08T04:58:12.834Z,7.25
2023-05-08T05:00:40.786Z,6.22
2023-05-08T05:03:08.554Z,7.30
2023-05-08T05:05:38.789Z,6.60
2023-05-08T05:08:09.031Z,6.80
2023-05-08T05:10:39.442Z,6.47
2023-05-08T05:13:07.400Z,6.80
2023-05-08T05:15:35.319Z,6.38
2023-05-08T05:18:03.169Z,6.25
2023-05-08T05:20:31.206Z,6.40
2023-05-08T05:23:00.032Z,5.78
2023-05-08T05:25:27.988Z,5.55
2023-05-08T05:27:55.555Z,5.05
2023-05-08T05:30:23.559Z,5.60
2023-05-08T05:32:51.408Z,5.00
2023-05-08T05:35:19.438Z,5.70
2023-05-08T05:37:47.222Z,5.53
2023-05-08T05:40:15.657Z,5.90
2023-05-08T05:42:50.323Z,6.20
2023-05-08T05:45:19.132Z,6.47
2023-05-08T05:47:52.440Z,7.07
2023-05-08T05:50:22.901Z,6.63
2023-05-08T05:52:51.468Z,5.95
2023-05-08T05:55:19.371Z,5.63
2023-05-08T05:57:48.742Z,6.37
2023-05-08T06:00:17.889Z,5.40
2023-05-08T06:02:52.582Z,5.30
2023-05-08T06:05:21.310Z,5.82
2023-05-08T06:07:48.974Z,6.35
2023-05-08T06:10:17.242Z,6.23
2023-05-08T06:12:44.932Z,5.35
2023-05-08T06:15:15.250Z,5.93
2023-05-08T06:17:45.507Z,6.20
2023-05-08T06:20:28.359Z,5.68
2023-05-08T06:22:56.571Z,5.90
2023-05-08T06:25:24.521Z,5.63
2023-05-08T06:27:52.390Z,5.75
2023-05-08T06:30:20.059Z,5.57
2023-05-08T06:32:48.041Z,5.68
2023-05-08T06:35:18.837Z,5.83
2023-05-08T06:37:47.186Z,5.70
2023-05-08T06:40:15.380Z,5.75
2023-05-08T06:42:43.419Z,6.03
2023-05-08T06:45:12.746Z,5.95
2023-05-08T06:47:41.326Z,6.50
2023-05-08T06:50:09.632Z,5.38
2023-05-08T06:52:37.599Z,6.53
2023-05-08T06:55:05.606Z,7.10
2023-05-08T06:57:33.834Z,6.63
2023-05-08T07:00:01.398Z,7.03
2023-05-08T07:02:29.512Z,6.50
2023-05-08T07:04:57.209Z,7.22
2023-05-08T07:07:25.321Z,7.05
2023-05-08T07:09:52.988Z,6.97
2023-05-08T07:12:21.118Z,6.60
2023-05-08T07:14:48.573Z,6.75
2023-05-08T07:17:17.259Z,6.55
2023-05-08T07:19:44.891Z,6.80
2023-05-08T07:22:13.088Z,7.45
2023-05-08T07:24:40.848Z,7.53
2023-05-08T07:27:09.038Z,7.95
2023-05-08T07:29:36.828Z,8.00
2023-05-08T07:32:08.448Z,7.28
2023-05-08T07:34:36.349Z,7.95
2023-05-08T07:37:04.295Z,6.93
2023-05-08T07:39:32.220Z,7.18
2023-05-08T07:42:00.101Z,7.60
2023-05-08T07:44:27.808Z,7.40
2023-05-08T07:46:55.676Z,7.57
2023-05-08T07:49:23.281Z,7.03
2023-05-08T07:51:50.955Z,7.35
2023-05-08T07:54:18.556Z,7.07
2023-05-08T07:56:46.512Z,6.75
2023-05-08T07:59:14.245Z,7.03
2023-05-08T08:01:48.006Z,6.53
2023-05-08T08:04:15.828Z,5.90
2023-05-08T08:06:43.830Z,7.07
2023-05-08T08:09:11.621Z,6.32
2023-05-08T08:11:41.030Z,6.00
2023-05-08T08:14:09.590Z,5.80
2023-05-08T08:16:37.449Z,6.65
2023-05-08T08:19:05.145Z,6.40
2023-05-08T08:21:33.346Z,6.53
2023-05-08T08:24:01.137Z,6.18
2023-05-08T08:26:29.032Z,5.70
2023-05-08T08:28:56.736Z,5.80
2023-05-08T08:31:24.925Z,5.03
2023-05-08T08:33:52.708Z,5.25
2023-05-08T08:36:20.591Z,5.20
2023-05-08T08:38:48.269Z,5.73
2023-05-08T08:41:16.156Z,5.43
2023-05-08T08:43:43.865Z,5.63
2023-05-08T08:46:16.097Z,5.15
2023-05-08T08:48:49.905Z,5.72
2023-05-08T08:51:27.784Z,6.10
2023-05-08T08:54:05.611Z,5.32
2023-05-08T08:56:45.424Z,4.88
2023-05-08T08:59:13.999Z,5.00
2023-05-08T09:01:54.320Z,5.10
2023-05-08T09:04:22.848Z,4.90
2023-05-08T09:06:50.979Z,5.30
2023-05-08T09:09:18.932Z,5.15
2023-05-08T09:11:49.541Z,4.70
2023-05-08T09:14:17.169Z,4.70
2023-05-08T09:16:46.597Z,5.13
2023-05-08T09:19:16.792Z,5.32
2023-05-08T09:21:46.208Z,4.93
2023-05-08T09:24:13.763Z,5.13
2023-05-08T09:26:49.745Z,4.47
2023-05-08T09:29:25.584Z,4.77
2023-05-08T09:32:01.045Z,4.50
2023-05-08T09:34:31.009Z,4.75
2023-05-08T09:37:12.484Z,4.90
2023-05-08T09:39:41.897Z,5.07
2023-05-08T09:42:09.995Z,4.73
2023-05-08T09:45:04.105Z,4.25
2023-05-08T09:47:32.276Z,4.85
2023-05-08T09:50:11.202Z,5.00
2023-05-08T09:52:46.285Z,4.15
2023-05-08T09:55:14.039Z,4.17
2023-05-08T09:58:01.541Z,3.50
2023-05-08T10:00:30.426Z,4.53
2023-05-08T10:02:58.437Z,4.45
2023-05-08T10:05:34.995Z,3.95
2023-05-08T10:08:18.212Z,3.53
2023-05-08T10:10:46.702Z,3.38
2023-05-08T10:13:18.855Z,3.00
2023-05-08T10:19:48.502Z,2.97
2023-05-08T10:22:16.737Z,3.03
2023-05-08T10:24:46.066Z,3.42
2023-05-08T10:27:47.624Z,3.80
2023-05-08T10:30:17.865Z,3.60
2023-05-08T10:32:50.315Z,3.50
2023-05-08T10:35:45.338Z,3.27
2023-05-08T10:38:16.953Z,3.47
2023-05-08T10:40:45.439Z,3.20
2023-05-08T10:43:13.252Z,3.35
2023-05-08T10:45:51.168Z,3.55
2023-05-08T10:48:58.785Z,3.60
2023-05-08T10:51:36.959Z,3.53
2023-05-08T10:55:11.634Z,3.20
2023-05-08T10:57:39.631Z,3.60
2023-05-08T11:00:07.937Z,2.97
2023-05-08T11:02:38.221Z,3.17
2023-05-08T11:05:17.166Z,3.30
2023-05-08T11:07:58.242Z,3.53
2023-05-08T11:10:32.597Z,3.20
2023-05-08T11:13:01.682Z,3.67
2023-05-08T11:15:42.535Z,3.70
2023-05-08T11:18:13.881Z,3.85
2023-05-08T11:20:43.400Z,3.70
2023-05-08T11:23:33.684Z,4.43
2023-05-08T11:26:06.962Z,4.25
2023-05-08T11:29:01.574Z,4.20
2023-05-08T11:31:56.535Z,4.68
2023-05-08T11:34:43.112Z,4.47
2023-05-08T11:37:12.489Z,4.72
2023-05-08T11:39:40.786Z,4.82
2023-05-08T11:42:27.842Z,4.43
2023-05-08T11:45:15.664Z,4.13
2023-05-08T11:47:45.674Z,3.67
2023-05-08T11:50:14.469Z,4.07
2023-05-08T11:52:45.837Z,4.40
2023-05-08T11:55:21.798Z,3.90
2023-05-08T11:57:49.357Z,3.47
2023-05-08T12:00:25.181Z,3.50
2023-05-08T12:02:52.768Z,4.82
2023-05-08T12:05:28.906Z,4.03
2023-05-08T12:07:56.599Z,3.47
2023-05-08T12:10:24.559Z,3.85
2023-05-08T12:12:52.588Z,3.45
2023-05-08T12:15:26.267Z,3.65
2023-05-08T12:18:07.817Z,3.63
2023-05-08T12:20:35.938Z,3.93
2023-05-08T12:23:03.997Z,3.92
2023-05-08T12:25:31.970Z,3.70
2023-05-08T12:28:00.747Z,3.75
2023-05-08T12:30:32.510Z,3.35
2023-05-08T12:33:08.163Z,3.77
2023-05-08T12:35:40.399Z,3.35
2023-05-08T12:38:11.032Z,3.55
2023-05-08T12:40:47.036Z,3.78
2023-05-08T12:43:15.744Z,3.33
2023-05-08T12:45:58.995Z,3.30
2023-05-08T12:48:27.427Z,3.33
2023-05-08T12:50:55.404Z,2.75
2023-05-08T12:53:48.627Z,2.72
2023-05-08T12:56:22.720Z,2.67
2023-05-08T12:58:50.401Z,3.57
2023-05-08T13:01:18.223Z,3.05
2023-05-08T13:04:01.536Z,3.85
2023-05-08T13:06:30.438Z,3.50
2023-05-08T13:08:58.067Z,3.60
2023-05-08T13:11:33.584Z,3.37
2023-05-08T13:14:01.457Z,3.22
2023-05-08T13:16:29.474Z,2.70
2023-05-08T13:18:57.224Z,2.70
2023-05-08T13:21:27.335Z,2.42
2023-05-08T13:23:57.108Z,2.30
2023-05-08T13:26:25.957Z,3.40
2023-05-08T13:28:56.235Z,7.15
2023-05-08T13:31:27.964Z,14.50
2023-05-08T13:34:21.313Z,11.77
2023-05-08T13:36:51.857Z,9.53
2023-05-08T13:39:19.435Z,3.30
2023-05-08T13:41:47.419Z,2.30
2023-05-08T13:44:15.068Z,5.00
2023-05-08T13:46:43.177Z,2.72
2023-05-08T13:49:10.782Z,1.93
2023-05-08T13:51:38.732Z,2.15
2023-05-08T13:54:06.420Z,2.65
2023-05-08T13:56:34.314Z,3.35
2023-05-08T13:59:01.688Z,3.80
2023-05-08T14:01:29.698Z,6.67
2023-05-08T14:03:57.317Z,3.55
2023-05-08T14:06:25.228Z,3.65
2023-05-08T14:08:56.932Z,3.60
2023-05-08T14:11:25.349Z,3.85
2023-05-08T14:13:53.113Z,8.37
2023-05-08T14:16:21.164Z,6.15
2023-05-08T14:18:48.620Z,10.60
2023-05-08T14:21:16.585Z,13.68
2023-05-08T14:23:45.401Z,3.95
2023-05-08T14:26:13.340Z,2.73
2023-05-08T14:28:40.930Z,4.75
2023-05-08T14:31:09.184Z,2.55
2023-05-08T14:33:36.620Z,4.20
2023-05-08T14:36:04.720Z,3.50
2023-05-08T14:38:32.225Z,4.73
2023-05-08T14:41:03.132Z,4.90
2023-05-08T14:43:32.234Z,5.38
2023-05-08T14:46:00.044Z,2.65
2023-05-08T14:48:27.978Z,1.70
2023-05-08T14:50:57.369Z,1.77
2023-05-08T14:53:28.140Z,1.20
2023-05-08T14:55:56.490Z,1.45
2023-05-08T14:58:24.154Z,1.40
2023-05-08T15:00:52.261Z,1.20
2023-05-08T15:03:27.455Z,1.10
2023-05-08T15:06:05.807Z,2.00
2023-05-08T15:08:42.606Z,1.60
2023-05-08T15:11:13.171Z,1.27
2023-05-08T15:13:40.903Z,1.38
2023-05-08T15:16:08.818Z,1.70
2023-05-08T15:18:36.813Z,1.60
2023-05-08T15:21:04.973Z,1.73
2023-05-08T15:23:32.573Z,2.10
2023-05-08T15:26:00.724Z,1.95
2023-05-08T15:28:28.276Z,1.67
2023-05-08T15:30:56.084Z,1.67
2023-05-08T15:33:23.665Z,1.50
2023-05-08T15:35:51.428Z,1.67
2023-05-08T15:38:18.855Z,3.35
2023-05-08T15:40:46.657Z,1.20
2023-05-08T15:43:14.422Z,1.15
2023-05-08T15:45:42.209Z,1.33
2023-05-08T15:48:09.973Z,1.13
2023-05-08T15:50:37.876Z,1.00
2023-05-08T15:53:06.115Z,0.90
2023-05-08T15:55:33.970Z,0.98
2023-05-08T15:58:02.740Z,0.70
2023-05-08T16:00:40.988Z,0.73
2023-05-08T16:03:12.662Z,0.77
2023-05-08T16:05:40.753Z,0.83
2023-05-08T16:08:12.832Z,0.65
2023-05-08T16:10:42.301Z,0.90
2023-05-08T16:13:22.724Z,1.42
2023-05-08T16:16:13.048Z,1.23
2023-05-08T16:18:48.233Z,1.10
2023-05-08T16:21:27.860Z,0.93
2023-05-08T16:23:59.981Z,0.70
2023-05-08T16:29:33.110Z,0.85
2023-05-08T16:32:12.191Z,0.70
2023-05-08T16:34:59.033Z,0.68
2023-05-08T16:37:28.453Z,0.73
2023-05-08T16:39:59.153Z,0.98
2023-05-08T16:42:30.890Z,1.33
2023-05-08T16:45:00.650Z,1.20
2023-05-08T16:50:31.966Z,1.30
2023-05-08T16:53:04.815Z,0.90
2023-05-08T16:55:57.725Z,2.00
2023-05-08T16:58:43.494Z,0.80
2023-05-08T17:01:15.739Z,0.50
2023-05-08T17:03:58.341Z,0.73
2023-05-08T17:06:30.243Z,0.80
2023-05-08T17:08:58.551Z,1.40
2023-05-08T17:11:26.158Z,1.03
2023-05-08T17:14:00.907Z,0.93
2023-05-08T17:16:31.951Z,1.13
2023-05-08T17:19:06.954Z,1.30
2023-05-08T17:21:35.325Z,1.20
2023-05-08T17:24:03.835Z,0.50
2023-05-08T17:26:54.863Z,1.20
2023-05-08T17:29:26.107Z,3.08
2023-05-08T17:32:03.751Z,4.50
2023-05-08T17:34:33.204Z,3.60
2023-05-08T17:37:05.933Z,1.40
2023-05-08T17:39:34.833Z,1.15
2023-05-08T17:42:04.003Z,0.82
2023-05-08T17:44:38.611Z,0.80
2023-05-08T17:47:06.586Z,0.68
2023-05-08T17:49:35.056Z,0.73
2023-05-08T17:52:23.726Z,1.05
2023-05-08T17:54:53.865Z,0.70
2023-05-08T17:57:29.654Z,0.77
2023-05-08T17:59:58.651Z,0.90
2023-05-08T18:02:26.844Z,0.90
2023-05-08T18:05:05.450Z,0.88
2023-05-08T18:08:33.879Z,1.60
2023-05-08T18:11:10.128Z,1.17
2023-05-08T18:13:52.444Z,0.50
2023-05-08T18:16:33.320Z,1.33
2023-05-08T18:19:01.601Z,2.50
2023-05-08T18:21:39.897Z,1.05
2023-05-08T18:24:21.967Z,1.23
2023-05-08T18:27:00.025Z,0.95
2023-05-08T18:29:31.790Z,1.50
2023-05-08T18:32:07.368Z,1.77
2023-05-08T18:34:57.850Z,1.70
2023-05-08T18:40:13.885Z,0.90
2023-05-08T18:43:03.235Z,0.97
2023-05-08T18:45:33.634Z,1.20
2023-05-08T18:48:01.656Z,1.50
2023-05-08T18:50:32.532Z,1.10
2023-05-08T18:53:03.596Z,1.67
2023-05-08T18:55:31.411Z,1.00
2023-05-08T18:58:00.619Z,1.08
2023-05-08T19:00:28.371Z,1.00
2023-05-08T19:03:03.076Z,1.20
2023-05-08T19:05:30.814Z,1.13
2023-05-08T19:07:59.484Z,5.00
2023-05-08T19:10:28.342Z,1.98
2023-05-08T19:12:56.345Z,1.40
2023-05-08T19:15:24.369Z,1.27
2023-05-08T19:17:57.832Z,0.80
2023-05-08T19:20:36.340Z,0.77
2023-05-08T19:23:17.047Z,0.50
2023-05-08T19:25:50.339Z,0.80
2023-05-08T19:28:19.448Z,0.63
2023-05-08T19:30:47.248Z,0.70
2023-05-08T19:33:18.779Z,0.63
2023-05-08T19:35:51.945Z,0.60
2023-05-08T19:38:20.232Z,0.65
2023-05-08T19:40:57.209Z,0.70
2023-05-08T19:43:28.846Z,0.98
2023-05-08T19:46:02.411Z,0.80
2023-05-08T19:48:36.428Z,0.77
2023-05-08T19:51:09.845Z,0.70
2023-05-08T19:53:41.338Z,0.65
2023-05-08T19:56:15.840Z,1.00
2023-05-08T19:58:47.428Z,0.70
2023-05-08T20:01:21.178Z,0.80
2023-05-08T20:03:49.635Z,1.58
2023-05-08T20:06:17.335Z,0.70
2023-05-08T20:08:45.260Z,0.90
2023-05-08T20:11:12.921Z,0.50
2023-05-08T20:13:40.873Z,0.50
2023-05-08T20:16:08.686Z,0.73
2023-05-08T20:18:36.779Z,0.65
2023-05-08T20:21:04.730Z,1.00
2023-05-08T20:23:33.273Z,0.50
2023-05-08T20:26:00.806Z,0.70
2023-05-08T20:28:29.082Z,0.75
2023-05-08T20:30:56.944Z,0.60
2023-05-08T20:33:25.020Z,0.77
2023-05-08T20:35:55.770Z,0.90
2023-05-08T20:38:23.692Z,0.80
2023-05-08T20:40:51.802Z,0.90
2023-05-08T20:43:20.975Z,0.75
2023-05-08T20:45:49.542Z,0.90
2023-05-08T20:48:17.727Z,0.77
2023-05-08T20:50:47.792Z,0.80
2023-05-08T20:53:15.820Z,0.80
2023-05-08T20:55:43.397Z,0.65
2023-05-08T20:58:11.440Z,0.77
2023-05-08T21:00:38.999Z,0.80
2023-05-08T21:03:06.963Z,0.60
2023-05-08T21:05:34.455Z,1.00
2023-05-08T21:08:03.896Z,0.70
2023-05-08T21:10:31.727Z,1.17
2023-05-08T21:12:59.682Z,0.93
2023-05-08T21:15:27.130Z,0.80
2023-05-08T21:17:57.260Z,1.20
2023-05-08T21:20:25.141Z,1.02
2023-05-08T21:22:53.167Z,0.80
2023-05-08T21:25:21.653Z,0.70
2023-05-08T21:27:49.618Z,0.68
2023-05-08T21:30:17.417Z,1.00
2023-05-08T21:32:46.170Z,0.95
2023-05-08T21:35:14.468Z,0.88
2023-05-08T21:37:42.650Z,0.80
2023-05-08T21:40:10.652Z,1.10
2023-05-08T21:42:39.539Z,0.68
2023-05-08T21:45:07.516Z,0.70
2023-05-08T21:47:35.493Z,0.70
2023-05-08T21:50:03.256Z,0.80
2023-05-08T21:52:31.155Z,0.80
2023-05-08T21:54:58.727Z,0.90
2023-05-08T21:57:26.698Z,0.90
2023-05-08T21:59:54.334Z,1.00
2023-05-08T22:02:22.319Z,1.20
2023-05-08T22:04:50.015Z,1.10
2023-05-08T22:07:19.436Z,1.20
2023-05-08T22:09:47.211Z,0.68
2023-05-08T22:12:15.085Z,1.05
2023-05-08T22:14:42.542Z,1.00
2023-05-08T22:17:10.281Z,0.85
2023-05-08T22:19:37.717Z,0.95
2023-05-08T22:22:05.453Z,0.70
2023-05-08T22:24:32.972Z,0.90
2023-05-08T22:27:00.922Z,0.70
2023-05-08T22:29:28.494Z,0.82
2023-05-08T22:31:56.429Z,0.80
2023-05-08T22:34:26.642Z,1.00
2023-05-08T22:36:54.552Z,0.90
2023-05-08T22:39:22.161Z,1.10
2023-05-08T22:41:50.156Z,0.80
2023-05-08T22:44:17.618Z,1.00
2023-05-08T22:46:45.445Z,1.27
2023-05-08T22:49:12.885Z,0.90
2023-05-08T22:51:40.816Z,1.10
2023-05-08T22:54:08.368Z,0.80
2023-05-08T22:56:38.390Z,1.10
2023-05-08T22:59:06.500Z,0.90
2023-05-08T23:01:34.487Z,0.80
2023-05-08T23:04:02.001Z,0.70
2023-05-08T23:06:30.240Z,0.80
2023-05-08T23:08:57.604Z,1.00
2023-05-08T23:11:27.232Z,0.70
2023-05-08T23:13:54.747Z,0.90
2023-05-08T23:16:22.628Z,0.70
2023-05-08T23:18:51.598Z,0.73
2023-05-08T23:21:19.389Z,0.80
2023-05-08T23:23:47.980Z,0.80
2023-05-08T23:26:15.866Z,0.70
2023-05-08T23:28:44.453Z,0.80
2023-05-08T23:31:13.456Z,0.80
2023-05-08T23:33:40.909Z,1.00
2023-05-08T23:36:08.988Z,0.60
2023-05-08T23:38:36.429Z,0.82
2023-05-08T23:41:04.307Z,0.90
2023-05-08T23:43:31.680Z,0.98
2023-05-08T23:45:59.399Z,0.75
2023-05-08T23:48:27.060Z,1.02
2023-05-08T23:50:54.886Z,1.00
2023-05-08T23:53:22.259Z,0.80
2023-05-08T23:55:53.411Z,0.90
2023-05-08T23:58:21.240Z,1.00
